Time;durP1;ratioP1;P1;durP2;ratioP2;P2;SDS_P1;SDS_P2;PMS_P1;PMS_P2;Temp;Humidity;BMP_temperature;BMP_pressure;BME280_temperature;BME280_humidity;BME280_pressure;Samples;Min_cycle;Max_cycle;Signal;HPM_P1;HPM_P2
2021/03/17 00:00:02;;;;;;;47.78;20.23;;;;;;;;;;5068588;28;20031;-84
2021/03/17 00:02:28;;;;;;;48.92;20.17;;;;;;;;;;5067839;28;20048;-84
2021/03/17 00:04:53;;;;;;;48.95;20.00;;;;;;;;;;5068738;28;20075;-85
2021/03/17 00:07:18;;;;;;;46.97;18.48;;;;;;;;;;5069125;28;20034;-85
2021/03/17 00:09:43;;;;;;;41.53;17.25;;;;;;;;;;5068184;28;20036;-85
2021/03/17 00:12:09;;;;;;;40.53;17.80;;;;;;;;;;5069998;28;20024;-86
2021/03/17 00:14:34;;;;;;;43.72;17.30;;;;;;;;;;5069612;28;20024;-85
2021/03/17 00:16:59;;;;;;;48.28;16.80;;;;;;;;;;5069379;28;20023;-84
2021/03/17 00:19:24;;;;;;;45.20;18.02;;;;;;;;;;5069415;28;20524;-84
2021/03/17 00:21:49;;;;;;;40.88;17.63;;;;;;;;;;5070127;28;20031;-84
2021/03/17 00:24:15;;;;;;;40.58;16.42;;;;;;;;;;5070745;28;20028;-84
2021/03/17 00:26:40;;;;;;;40.38;18.30;;;;;;;;;;5070571;28;20449;-85
2021/03/17 00:29:05;;;;;;;48.05;18.27;;;;;;;;;;5070590;28;20044;-84
2021/03/17 00:31:30;;;;;;;45.97;19.10;;;;;;;;;;5070190;28;20016;-85
2021/03/17 00:33:56;;;;;;;40.92;19.55;;;;;;;;;;5070505;28;20020;-85
2021/03/17 00:36:21;;;;;;;43.90;18.45;;;;;;;;;;5069303;28;20027;-85
2021/03/17 00:38:46;;;;;;;41.15;18.38;;;;;;;;;;5070648;28;20025;-85
2021/03/17 00:41:12;;;;;;;38.55;18.60;;;;;;;;;;5065690;23;20048;-65
2021/03/17 00:43:37;;;;;;;43.85;18.52;;;;;;;;;;5052295;28;20133;-65
2021/03/17 00:46:02;;;;;;;42.38;20.23;;;;;;;;;;5055536;28;20388;-65
2021/03/17 00:48:27;;;;;;;38.50;18.70;;;;;;;;;;5052035;28;20477;-65
2021/03/17 00:50:53;;;;;;;49.72;19.92;;;;;;;;;;5050242;28;20044;-65
2021/03/17 00:53:18;;;;;;;47.60;19.88;;;;;;;;;;5048332;28;20025;-65
2021/03/17 00:55:43;;;;;;;51.22;21.25;;;;;;;;;;5051940;28;20013;-66
2021/03/17 00:58:08;;;;;;;43.70;19.42;;;;;;;;;;5051614;28;20462;-65
2021/03/17 01:00:33;;;;;;;43.28;20.20;;;;;;;;;;5052336;28;20074;-65
2021/03/17 01:02:59;;;;;;;53.10;21.80;;;;;;;;;;5052432;28;20021;-65
2021/03/17 01:05:24;;;;;;;50.80;21.35;;;;;;;;;;5048218;28;20017;-65
2021/03/17 01:07:49;;;;;;;56.92;23.00;;;;;;;;;;5045786;28;20013;-65
2021/03/17 01:10:26;;;;;;;54.33;23.73;;;;;;;;;;5055692;28;20025;-65
2021/03/17 01:12:51;;;;;;;55.38;22.80;;;;;;;;;;5051840;28;20475;-65
2021/03/17 01:15:18;;;;;;;49.22;20.90;;;;;;;;;;5051579;28;20025;-65
2021/03/17 01:17:43;;;;;;;53.13;23.48;;;;;;;;;;5062176;28;20028;-65
2021/03/17 01:20:09;;;;;;;50.95;23.58;;;;;;;;;;5053651;28;20377;-65
2021/03/17 01:22:34;;;;;;;55.05;23.88;;;;;;;;;;5052360;28;20119;-65
2021/03/17 01:24:59;;;;;;;55.50;23.60;;;;;;;;;;5052242;28;20063;-65
2021/03/17 01:27:25;;;;;;;56.45;23.58;;;;;;;;;;5051995;28;20112;-65
2021/03/17 01:29:50;;;;;;;53.30;23.63;;;;;;;;;;5051656;28;20143;-65
2021/03/17 01:32:15;;;;;;;57.42;23.65;;;;;;;;;;5050356;28;20104;-65
2021/03/17 01:34:40;;;;;;;54.97;23.98;;;;;;;;;;5051754;28;20628;-65
2021/03/17 01:37:05;;;;;;;54.95;23.60;;;;;;;;;;5050963;28;20025;-65
2021/03/17 01:39:31;;;;;;;49.92;22.60;;;;;;;;;;5051718;28;20500;-65
2021/03/17 01:41:56;;;;;;;55.38;24.08;;;;;;;;;;5051497;28;20028;-65
2021/03/17 01:44:21;;;;;;;51.35;23.40;;;;;;;;;;5033618;28;20021;-65
2021/03/17 01:46:46;;;;;;;49.47;24.00;;;;;;;;;;5048709;28;20550;-65
2021/03/17 01:49:11;;;;;;;59.85;25.17;;;;;;;;;;5051227;28;20017;-65
2021/03/17 01:51:37;;;;;;;53.65;23.27;;;;;;;;;;5048422;28;20084;-65
2021/03/17 01:54:04;;;;;;;60.55;24.77;;;;;;;;;;5031797;28;20013;-65
2021/03/17 01:56:30;;;;;;;45.75;22.95;;;;;;;;;;5048554;28;20024;-65
2021/03/17 01:58:55;;;;;;;44.58;21.70;;;;;;;;;;5050411;28;20408;-65
2021/03/17 02:01:20;;;;;;;47.78;23.67;;;;;;;;;;5050977;28;20028;-65
2021/03/17 02:03:46;;;;;;;44.70;22.10;;;;;;;;;;5046783;28;20017;-65
2021/03/17 02:06:11;;;;;;;44.72;22.17;;;;;;;;;;5050605;28;20453;-65
2021/03/17 02:08:37;;;;;;;44.03;20.98;;;;;;;;;;5050450;28;20024;-65
2021/03/17 02:11:03;;;;;;;44.92;20.98;;;;;;;;;;5050251;28;20028;-65
2021/03/17 02:13:31;;;;;;;42.78;20.42;;;;;;;;;;5050876;28;20021;-65
2021/03/17 02:16:02;;;;;;;40.75;20.63;;;;;;;;;;5050890;28;20021;-65
2021/03/17 02:18:30;;;;;;;61.10;25.85;;;;;;;;;;5046895;28;20024;-65
2021/03/17 02:21:14;;;;;;;51.67;23.05;;;;;;;;;;5050526;28;20524;-65
2021/03/17 02:24:06;;;;;;;50.85;22.48;;;;;;;;;;5051483;28;20056;-65
2021/03/17 02:26:49;;;;;;;47.97;22.13;;;;;;;;;;5048466;28;20048;-65
2021/03/17 02:29:24;;;;;;;45.88;20.70;;;;;;;;;;5050424;28;20096;-65
2021/03/17 02:31:53;;;;;;;57.35;21.35;;;;;;;;;;5050460;28;20013;-65
2021/03/17 02:34:19;;;;;;;45.13;21.85;;;;;;;;;;5049608;28;20025;-65
2021/03/17 02:37:04;;;;;;;39.25;20.83;;;;;;;;;;5050043;28;20524;-65
2021/03/17 02:39:34;;;;;;;42.58;20.45;;;;;;;;;;5040121;28;20034;-65
2021/03/17 02:42:02;;;;;;;45.00;21.98;;;;;;;;;;5049723;28;20445;-65
2021/03/17 02:44:27;;;;;;;45.88;21.52;;;;;;;;;;5050072;28;20477;-65
2021/03/17 02:46:53;;;;;;;46.25;21.88;;;;;;;;;;5049979;28;20021;-65
2021/03/17 02:49:21;;;;;;;50.30;21.75;;;;;;;;;;5050127;28;20068;-65
2021/03/17 02:51:49;;;;;;;47.33;22.35;;;;;;;;;;5043504;28;20055;-65
2021/03/17 02:54:16;;;;;;;52.38;24.17;;;;;;;;;;5039876;23;20187;-66
2021/03/17 02:57:04;;;;;;;55.30;24.63;;;;;;;;;;5046494;28;20108;-66
2021/03/17 02:59:30;;;;;;;51.45;23.50;;;;;;;;;;5034715;28;20043;-65
2021/03/17 03:01:57;;;;;;;55.00;24.98;;;;;;;;;;5041642;28;20095;-65
2021/03/17 03:04:23;;;;;;;60.00;25.13;;;;;;;;;;5042779;28;20013;-66
2021/03/17 03:06:49;;;;;;;60.60;26.13;;;;;;;;;;5040676;28;20148;-66
2021/03/17 03:09:16;;;;;;;56.28;25.92;;;;;;;;;;5030783;28;20108;-65
2021/03/17 03:11:41;;;;;;;64.18;26.63;;;;;;;;;;5034557;28;20084;-66
2021/03/17 03:14:06;;;;;;;58.63;25.65;;;;;;;;;;5038503;28;20083;-65
2021/03/17 03:16:35;;;;;;;59.88;24.40;;;;;;;;;;5036779;28;20025;-66
2021/03/17 03:19:01;;;;;;;62.35;25.73;;;;;;;;;;5044364;28;20493;-65
2021/03/17 03:21:26;;;;;;;55.03;24.95;;;;;;;;;;5036714;28;20024;-66
2021/03/17 03:23:53;;;;;;;57.03;26.88;;;;;;;;;;5034262;28;20021;-66
2021/03/17 03:26:18;;;;;;;57.22;25.13;;;;;;;;;;5042590;28;20067;-66
2021/03/17 03:28:45;;;;;;;53.53;24.83;;;;;;;;;;5035944;28;20025;-66
2021/03/17 03:31:11;;;;;;;58.20;26.98;;;;;;;;;;5038938;28;20092;-66
2021/03/17 03:33:36;;;;;;;58.20;25.20;;;;;;;;;;5034577;28;20045;-66
2021/03/17 03:36:01;;;;;;;54.92;24.15;;;;;;;;;;5038819;28;20520;-66
2021/03/17 03:38:27;;;;;;;58.58;25.92;;;;;;;;;;5039889;28;20031;-66
2021/03/17 03:40:52;;;;;;;59.70;29.60;;;;;;;;;;5037013;28;20504;-66
2021/03/17 03:43:17;;;;;;;46.72;21.63;;;;;;;;;;5036587;28;20055;-66
2021/03/17 03:45:43;;;;;;;58.47;22.73;;;;;;;;;;5047545;28;20020;-66
2021/03/17 03:48:08;;;;;;;41.88;19.98;;;;;;;;;;5050832;28;20013;-66
2021/03/17 03:50:39;;;;;;;40.30;17.75;;;;;;;;;;5050648;28;20032;-66
2021/03/17 03:53:07;;;;;;;44.35;18.23;;;;;;;;;;5034208;28;20594;-66
2021/03/17 03:55:48;;;;;;;37.08;15.40;;;;;;;;;;5041375;28;20382;-66
2021/03/17 03:58:14;;;;;;;33.33;15.30;;;;;;;;;;5033543;28;20623;-66
2021/03/17 04:00:40;;;;;;;27.05;13.02;;;;;;;;;;5045622;28;20048;-66
2021/03/17 04:03:06;;;;;;;25.27;11.38;;;;;;;;;;5034169;28;20029;-66
2021/03/17 04:05:34;;;;;;;30.98;10.57;;;;;;;;;;5044146;28;20048;-66
2021/03/17 04:08:01;;;;;;;23.23;11.73;;;;;;;;;;5042187;28;20033;-66
2021/03/17 04:10:27;;;;;;;16.83;9.18;;;;;;;;;;5033228;28;20052;-66
2021/03/17 04:12:54;;;;;;;19.42;10.23;;;;;;;;;;5034290;28;20490;-66
2021/03/17 04:15:20;;;;;;;20.90;10.20;;;;;;;;;;5042797;28;20017;-66
2021/03/17 04:17:49;;;;;;;23.50;9.82;;;;;;;;;;5053554;28;20021;-66
2021/03/17 04:20:16;;;;;;;24.10;10.38;;;;;;;;;;5043619;28;20480;-66
2021/03/17 04:22:42;;;;;;;26.85;11.32;;;;;;;;;;5034788;28;20037;-66
2021/03/17 04:25:09;;;;;;;25.30;12.60;;;;;;;;;;5035641;28;20021;-66
2021/03/17 04:27:34;;;;;;;27.33;12.88;;;;;;;;;;5052495;28;20032;-66
2021/03/17 04:30:01;;;;;;;30.52;14.82;;;;;;;;;;5031745;28;20393;-66
2021/03/17 04:32:27;;;;;;;35.95;14.45;;;;;;;;;;5032818;28;20068;-66
2021/03/17 04:34:53;;;;;;;35.70;16.70;;;;;;;;;;5041168;28;20025;-66
2021/03/17 04:37:19;;;;;;;40.75;16.08;;;;;;;;;;5046299;28;20120;-66
2021/03/17 04:39:45;;;;;;;39.22;17.50;;;;;;;;;;5051130;28;20121;-66
2021/03/17 04:42:10;;;;;;;38.30;18.13;;;;;;;;;;5033527;28;20482;-66
2021/03/17 04:44:37;;;;;;;35.72;16.30;;;;;;;;;;5043657;28;20025;-66
2021/03/17 04:47:04;;;;;;;23.08;13.10;;;;;;;;;;5034013;28;20116;-66
2021/03/17 04:49:29;;;;;;;24.63;12.30;;;;;;;;;;5036330;28;20022;-66
2021/03/17 04:51:55;;;;;;;24.23;11.75;;;;;;;;;;5040648;28;20091;-66
2021/03/17 04:54:20;;;;;;;24.70;11.93;;;;;;;;;;5045617;28;20053;-66
2021/03/17 04:56:46;;;;;;;21.40;11.05;;;;;;;;;;5038156;28;20029;-66
2021/03/17 04:59:15;;;;;;;23.88;10.35;;;;;;;;;;5039916;28;20033;-66
2021/03/17 05:01:42;;;;;;;22.20;10.18;;;;;;;;;;5036384;28;20025;-66
2021/03/17 05:04:08;;;;;;;24.27;11.68;;;;;;;;;;5037304;28;20020;-66
2021/03/17 05:06:35;;;;;;;25.55;12.20;;;;;;;;;;5052589;28;20047;-66
2021/03/17 05:09:01;;;;;;;27.75;13.02;;;;;;;;;;5034762;28;20025;-66
2021/03/17 05:11:28;;;;;;;32.25;15.43;;;;;;;;;;5033208;28;20053;-66
2021/03/17 05:13:53;;;;;;;33.33;15.82;;;;;;;;;;5036338;28;20095;-66
2021/03/17 05:16:20;;;;;;;21.60;12.38;;;;;;;;;;5041645;28;20130;-66
2021/03/17 05:18:46;;;;;;;25.80;13.18;;;;;;;;;;5051671;28;20028;-66
2021/03/17 05:21:11;;;;;;;26.05;12.88;;;;;;;;;;5035170;28;20028;-66
2021/03/17 05:23:39;;;;;;;24.88;12.48;;;;;;;;;;5049061;28;20021;-66
2021/03/17 05:26:04;;;;;;;25.35;13.00;;;;;;;;;;5036111;28;20032;-66
2021/03/17 05:28:30;;;;;;;23.88;13.65;;;;;;;;;;5042203;28;20017;-66
2021/03/17 05:30:56;;;;;;;23.50;12.93;;;;;;;;;;5034844;28;20024;-66
2021/03/17 05:33:22;;;;;;;28.65;13.95;;;;;;;;;;5036323;28;20013;-66
2021/03/17 05:35:47;;;;;;;35.17;15.30;;;;;;;;;;5040460;28;20500;-66
2021/03/17 05:38:12;;;;;;;33.17;16.10;;;;;;;;;;5037511;28;20025;-66
2021/03/17 05:40:38;;;;;;;29.27;15.05;;;;;;;;;;5035258;28;20020;-66
2021/03/17 05:43:05;;;;;;;40.95;16.65;;;;;;;;;;5037905;28;20021;-66
2021/03/17 05:45:31;;;;;;;34.65;17.08;;;;;;;;;;5043130;28;20473;-66
2021/03/17 05:47:57;;;;;;;36.90;18.25;;;;;;;;;;5011711;28;20517;-66
2021/03/17 05:50:23;;;;;;;33.28;17.00;;;;;;;;;;5039150;28;20020;-66
2021/03/17 05:52:49;;;;;;;33.78;18.67;;;;;;;;;;5030546;28;20029;-66
2021/03/17 05:55:15;;;;;;;42.08;19.77;;;;;;;;;;5033855;28;20104;-66
2021/03/17 05:57:41;;;;;;;46.63;20.63;;;;;;;;;;5030027;28;20033;-66
2021/03/17 06:00:08;;;;;;;39.97;20.20;;;;;;;;;;5030014;28;20052;-66
2021/03/17 06:02:33;;;;;;;40.55;20.45;;;;;;;;;;5030559;28;20029;-66
2021/03/17 06:04:59;;;;;;;42.33;18.75;;;;;;;;;;5041733;28;20032;-66
2021/03/17 06:07:26;;;;;;;41.85;19.02;;;;;;;;;;5043320;28;20029;-66
2021/03/17 06:09:52;;;;;;;45.83;21.60;;;;;;;;;;5036039;28;20025;-65
2021/03/17 06:12:20;;;;;;;38.92;19.25;;;;;;;;;;5026572;28;20493;-66
2021/03/17 06:14:47;;;;;;;47.17;20.25;;;;;;;;;;5025474;28;20029;-66
2021/03/17 06:17:13;;;;;;;47.05;23.02;;;;;;;;;;5035603;28;20037;-65
2021/03/17 06:19:40;;;;;;;39.92;20.02;;;;;;;;;;5019029;28;20536;-66
2021/03/17 06:22:06;;;;;;;43.13;23.02;;;;;;;;;;5030047;28;20041;-66
2021/03/17 06:24:32;;;;;;;46.03;22.75;;;;;;;;;;5028707;28;20413;-66
2021/03/17 06:26:58;;;;;;;48.58;23.05;;;;;;;;;;5033456;28;20054;-65
2021/03/17 06:29:23;;;;;;;46.67;21.63;;;;;;;;;;5039688;28;20048;-66
2021/03/17 06:31:48;;;;;;;42.65;21.95;;;;;;;;;;5035417;28;20025;-66
2021/03/17 06:34:14;;;;;;;40.00;20.08;;;;;;;;;;5039517;28;20477;-66
2021/03/17 06:36:59;;;;;;;36.28;18.60;;;;;;;;;;5039901;28;20100;-66
2021/03/17 06:39:33;;;;;;;37.95;19.88;;;;;;;;;;5028423;28;20033;-66
2021/03/17 06:41:58;;;;;;;40.55;21.13;;;;;;;;;;5030107;28;20025;-66
2021/03/17 06:44:25;;;;;;;45.58;21.67;;;;;;;;;;5029474;28;20032;-66
2021/03/17 06:47:08;;;;;;;45.05;21.80;;;;;;;;;;5027211;28;20033;-66
2021/03/17 06:49:35;;;;;;;50.80;21.38;;;;;;;;;;5030235;28;20466;-65
2021/03/17 06:52:20;;;;;;;44.22;21.30;;;;;;;;;;5028476;28;20029;-66
2021/03/17 06:55:02;;;;;;;48.92;21.83;;;;;;;;;;5029381;28;20466;-66
2021/03/17 06:57:27;;;;;;;46.25;21.33;;;;;;;;;;5031097;28;20036;-66
2021/03/17 06:59:53;;;;;;;48.93;22.13;;;;;;;;;;5028605;28;20405;-66
2021/03/17 07:02:18;;;;;;;47.80;22.45;;;;;;;;;;5028489;28;20274;-66
2021/03/17 07:04:51;;;;;;;50.40;23.55;;;;;;;;;;5030006;28;20040;-66
2021/03/17 07:07:20;;;;;;;50.53;23.40;;;;;;;;;;5026339;28;20025;-66
2021/03/17 07:09:57;;;;;;;49.25;22.80;;;;;;;;;;5030847;28;21271;-66
2021/03/17 07:12:30;;;;;;;65.25;27.23;;;;;;;;;;5030697;28;20023;-66
2021/03/17 07:14:55;;;;;;;56.35;25.17;;;;;;;;;;5039229;28;20439;-66
2021/03/17 07:17:27;;;;;;;52.17;24.77;;;;;;;;;;5038916;28;20113;-66
2021/03/17 07:19:52;;;;;;;52.65;23.48;;;;;;;;;;5034648;28;20028;-66
2021/03/17 07:22:19;;;;;;;54.17;26.63;;;;;;;;;;5030449;28;20026;-66
2021/03/17 07:24:45;;;;;;;48.92;26.80;;;;;;;;;;5040256;28;20021;-66
2021/03/17 07:27:15;;;;;;;55.70;25.50;;;;;;;;;;5038744;28;20047;-66
2021/03/17 07:29:41;;;;;;;56.42;23.98;;;;;;;;;;5029614;28;20060;-66
2021/03/17 07:32:06;;;;;;;44.00;20.98;;;;;;;;;;5029636;28;20049;-66
2021/03/17 07:34:33;;;;;;;51.08;23.27;;;;;;;;;;5035680;28;20048;-66
2021/03/17 07:37:05;;;;;;;44.55;21.20;;;;;;;;;;5031213;28;20097;-66
2021/03/17 07:39:41;;;;;;;45.83;21.98;;;;;;;;;;5035742;28;20500;-65
2021/03/17 07:42:08;;;;;;;43.30;20.75;;;;;;;;;;5033306;28;20481;-66
2021/03/17 07:44:37;;;;;;;39.47;20.02;;;;;;;;;;5048484;28;20063;-66
2021/03/17 07:47:03;;;;;;;38.47;20.33;;;;;;;;;;5037413;28;20021;-66
2021/03/17 07:49:29;;;;;;;40.95;19.45;;;;;;;;;;5029876;28;20068;-66
2021/03/17 07:51:55;;;;;;;38.13;19.30;;;;;;;;;;5029691;28;20025;-66
2021/03/17 07:54:28;;;;;;;37.13;19.27;;;;;;;;;;5036133;28;20030;-66
2021/03/17 07:56:53;;;;;;;33.92;17.17;;;;;;;;;;5030098;28;20021;-65
2021/03/17 07:59:19;;;;;;;35.92;17.10;;;;;;;;;;5030979;28;20032;-65
2021/03/17 08:01:45;;;;;;;32.80;17.52;;;;;;;;;;5031562;28;20025;-65
2021/03/17 08:04:11;;;;;;;37.25;19.17;;;;;;;;;;5030984;28;20104;-65
2021/03/17 08:06:36;;;;;;;36.95;18.45;;;;;;;;;;5040361;28;20085;-65
2021/03/17 08:09:01;;;;;;;36.83;17.65;;;;;;;;;;5042532;28;20048;-66
2021/03/17 08:11:28;;;;;;;32.90;17.25;;;;;;;;;;5034940;28;20018;-67
2021/03/17 08:13:54;;;;;;;37.10;18.17;;;;;;;;;;5037956;28;20092;-66
2021/03/17 08:16:20;;;;;;;31.70;16.25;;;;;;;;;;5040569;28;20572;-65
2021/03/17 08:18:46;;;;;;;28.73;15.50;;;;;;;;;;5033636;28;20026;-66
2021/03/17 08:21:12;;;;;;;30.83;15.73;;;;;;;;;;5033402;28;20044;-65
2021/03/17 08:23:37;;;;;;;27.38;15.23;;;;;;;;;;5036203;28;21607;-65
2021/03/17 08:26:02;;;;;;;21.80;12.93;;;;;;;;;;5045160;28;20489;-65
2021/03/17 08:28:29;;;;;;;13.90;7.10;;;;;;;;;;5041471;28;20036;-65
2021/03/17 08:30:55;;;;;;;9.60;5.00;;;;;;;;;;5036779;28;20091;-66
2021/03/17 08:33:31;;;;;;;7.43;4.13;;;;;;;;;;5043230;28;20027;-66
2021/03/17 08:36:08;;;;;;;7.38;2.60;;;;;;;;;;5036104;28;20025;-66
2021/03/17 08:38:42;;;;;;;8.52;2.22;;;;;;;;;;5035296;28;20026;-66
2021/03/17 08:41:07;;;;;;;7.45;2.33;;;;;;;;;;5045658;28;20024;-66
2021/03/17 08:43:32;;;;;;;6.97;2.00;;;;;;;;;;5032832;28;20021;-65
2021/03/17 08:46:04;;;;;;;7.68;2.33;;;;;;;;;;5048952;28;20017;-66
2021/03/17 08:48:50;;;;;;;13.60;1.85;;;;;;;;;;5041109;28;20366;-66
2021/03/17 08:51:15;;;;;;;4.25;2.03;;;;;;;;;;5025959;28;20034;-66
2021/03/17 08:56:32;;;;;;;10.38;2.80;;;;;;;;;;5089752;28;20087;-70
2021/03/17 08:59:14;;;;;;;11.43;2.67;;;;;;;;;;5091892;28;20047;-70
2021/03/17 09:01:39;;;;;;;8.57;2.65;;;;;;;;;;5091142;28;20036;-68
2021/03/17 09:04:04;;;;;;;8.05;3.30;;;;;;;;;;5092209;28;20024;-67
2021/03/17 09:06:29;;;;;;;10.20;3.17;;;;;;;;;;5079207;28;20476;-67
2021/03/17 09:08:56;;;;;;;10.95;2.80;;;;;;;;;;5083218;28;20095;-67
2021/03/17 09:11:30;;;;;;;8.98;3.00;;;;;;;;;;5072486;28;20021;-67
2021/03/17 09:13:56;;;;;;;9.73;3.13;;;;;;;;;;5073714;28;20020;-67
2021/03/17 09:16:21;;;;;;;13.23;3.38;;;;;;;;;;5079350;28;20024;-69
2021/03/17 09:19:16;;;;;;;9.20;3.00;;;;;;;;;;5077800;28;20066;-67
2021/03/17 09:21:45;;;;;;;9.68;3.30;;;;;;;;;;5058937;28;20072;-70
2021/03/17 09:24:30;;;;;;;9.00;3.45;;;;;;;;;;5084048;28;20034;-69
2021/03/17 09:27:01;;;;;;;13.45;3.38;;;;;;;;;;5076289;28;20016;-67
2021/03/17 09:29:26;;;;;;;5.53;2.50;;;;;;;;;;5085538;28;20017;-67
2021/03/17 09:31:54;;;;;;;10.38;4.50;;;;;;;;;;5081806;28;20019;-67
2021/03/17 09:34:29;;;;;;;7.72;3.10;;;;;;;;;;5084705;28;20123;-68
2021/03/17 09:37:01;;;;;;;14.70;2.97;;;;;;;;;;5077520;28;20032;-68
2021/03/17 09:39:26;;;;;;;10.10;2.33;;;;;;;;;;5084575;28;20020;-67
2021/03/17 09:41:52;;;;;;;5.37;2.53;;;;;;;;;;5091323;28;20016;-68
2021/03/17 09:44:20;;;;;;;6.30;2.60;;;;;;;;;;5085255;28;21032;-70
2021/03/17 09:46:48;;;;;;;10.63;2.70;;;;;;;;;;5087302;28;20115;-67
2021/03/17 09:49:14;;;;;;;10.32;2.58;;;;;;;;;;5084092;28;20027;-67
2021/03/17 09:51:44;;;;;;;4.78;2.30;;;;;;;;;;5087337;28;20012;-67
2021/03/17 09:54:10;;;;;;;8.10;2.15;;;;;;;;;;5080866;28;20020;-67
2021/03/17 09:56:37;;;;;;;4.40;1.95;;;;;;;;;;5071725;28;20422;-67
2021/03/17 09:59:15;;;;;;;8.15;2.80;;;;;;;;;;5077146;28;20023;-66
2021/03/17 10:01:58;;;;;;;6.93;2.20;;;;;;;;;;5080525;28;20048;-67
2021/03/17 10:04:34;;;;;;;4.63;2.30;;;;;;;;;;5083900;28;20381;-67
2021/03/17 10:07:00;;;;;;;3.45;1.92;;;;;;;;;;5080330;28;20026;-68
2021/03/17 10:09:26;;;;;;;6.85;1.90;;;;;;;;;;5087423;28;20189;-67
2021/03/17 10:11:58;;;;;;;10.45;1.90;;;;;;;;;;5079765;28;20016;-67
2021/03/17 10:14:24;;;;;;;4.07;2.17;;;;;;;;;;5079155;28;20015;-67
2021/03/17 10:16:49;;;;;;;6.50;1.77;;;;;;;;;;5084923;28;20024;-69
2021/03/17 10:19:15;;;;;;;6.17;1.67;;;;;;;;;;5084601;28;20042;-70
2021/03/17 10:21:41;;;;;;;6.55;2.15;;;;;;;;;;5085764;28;20271;-67
2021/03/17 10:24:07;;;;;;;7.13;2.13;;;;;;;;;;5082251;28;20035;-67
2021/03/17 10:26:35;;;;;;;6.10;1.80;;;;;;;;;;5076432;28;20032;-67
2021/03/17 10:29:00;;;;;;;7.72;2.35;;;;;;;;;;5082305;28;20476;-67
2021/03/17 10:31:29;;;;;;;6.50;2.00;;;;;;;;;;5073676;28;20111;-68
2021/03/17 10:33:54;;;;;;;6.88;2.15;;;;;;;;;;5086175;28;20468;-68
2021/03/17 10:36:19;;;;;;;8.30;2.80;;;;;;;;;;5088202;28;20026;-68
2021/03/17 10:38:51;;;;;;;5.97;2.38;;;;;;;;;;5084134;28;20066;-68
2021/03/17 10:41:35;;;;;;;6.68;2.35;;;;;;;;;;5077231;28;20015;-68
2021/03/17 10:44:16;;;;;;;9.60;3.10;;;;;;;;;;5076734;28;20726;-68
2021/03/17 10:46:58;;;;;;;8.82;2.70;;;;;;;;;;5088233;28;20379;-68
2021/03/17 10:49:23;;;;;;;6.70;2.92;;;;;;;;;;5090655;28;20023;-68
2021/03/17 10:51:51;;;;;;;8.60;3.00;;;;;;;;;;5095340;28;20419;-68
2021/03/17 10:54:25;;;;;;;7.55;3.00;;;;;;;;;;5090842;28;20033;-69
2021/03/17 10:56:51;;;;;;;11.77;3.90;;;;;;;;;;5087694;28;20110;-69
2021/03/17 10:59:23;;;;;;;5.70;3.25;;;;;;;;;;5072132;28;20107;-69
2021/03/17 11:01:48;;;;;;;5.88;3.03;;;;;;;;;;5080706;28;20511;-68
2021/03/17 11:04:13;;;;;;;4.55;2.58;;;;;;;;;;5089501;28;20059;-69
2021/03/17 11:06:38;;;;;;;6.05;1.60;;;;;;;;;;5084358;28;20031;-68
2021/03/17 11:09:05;;;;;;;11.10;2.95;;;;;;;;;;5071294;28;20493;-69
2021/03/17 11:11:32;;;;;;;8.73;1.48;;;;;;;;;;5077290;28;20032;-68
2021/03/17 11:13:57;;;;;;;10.90;1.02;;;;;;;;;;5089153;28;20096;-68
2021/03/17 11:16:27;;;;;;;4.80;0.95;;;;;;;;;;5078238;28;20106;-68
2021/03/17 11:18:53;;;;;;;2.97;0.95;;;;;;;;;;5074697;28;20030;-68
2021/03/17 11:21:32;;;;;;;3.70;0.80;;;;;;;;;;5079367;28;20028;-68
2021/03/17 11:23:58;;;;;;;7.35;1.13;;;;;;;;;;5073817;28;20135;-68
2021/03/17 11:26:24;;;;;;;5.00;0.82;;;;;;;;;;5077704;28;20490;-68
2021/03/17 11:28:50;;;;;;;5.07;1.10;;;;;;;;;;5081448;28;20020;-68
2021/03/17 11:31:22;;;;;;;4.63;1.00;;;;;;;;;;5075424;28;20027;-68
2021/03/17 11:33:47;;;;;;;6.50;1.13;;;;;;;;;;5080886;28;20066;-69
2021/03/17 11:36:12;;;;;;;5.90;1.20;;;;;;;;;;5087086;28;20015;-68
2021/03/17 11:38:37;;;;;;;5.20;1.20;;;;;;;;;;5095453;28;20020;-69
2021/03/17 11:41:02;;;;;;;7.28;2.72;;;;;;;;;;5089169;28;20016;-68
2021/03/17 11:43:29;;;;;;;6.30;1.55;;;;;;;;;;5082408;28;20155;-68
2021/03/17 11:45:55;;;;;;;3.58;1.30;;;;;;;;;;5084861;28;20012;-68
2021/03/17 11:48:21;;;;;;;5.60;1.27;;;;;;;;;;5077527;28;20028;-68
2021/03/17 11:50:48;;;;;;;9.70;1.63;;;;;;;;;;5086668;28;20009;-68
2021/03/17 11:53:13;;;;;;;12.45;2.00;;;;;;;;;;5086920;28;20540;-67
2021/03/17 11:55:39;;;;;;;9.13;1.73;;;;;;;;;;5084590;28;20124;-68
2021/03/17 11:58:04;;;;;;;7.38;1.83;;;;;;;;;;5084538;28;20476;-68
2021/03/17 12:00:30;;;;;;;17.10;2.28;;;;;;;;;;5081938;28;20054;-68
2021/03/17 12:02:55;;;;;;;17.00;2.10;;;;;;;;;;5095882;28;20483;-68
2021/03/17 12:05:20;;;;;;;4.45;1.30;;;;;;;;;;5092158;28;20023;-68
2021/03/17 12:07:46;;;;;;;5.30;2.00;;;;;;;;;;5088040;28;20027;-69
2021/03/17 12:10:12;;;;;;;4.22;1.52;;;;;;;;;;5093920;28;20639;-69
2021/03/17 12:12:38;;;;;;;6.45;1.90;;;;;;;;;;5085943;28;20103;-68
2021/03/17 12:15:07;;;;;;;7.82;1.80;;;;;;;;;;5103039;28;20095;-69
2021/03/17 12:17:32;;;;;;;12.55;1.83;;;;;;;;;;5093499;28;20047;-69
2021/03/17 12:19:57;;;;;;;5.15;1.75;;;;;;;;;;5079254;28;20205;-69
2021/03/17 12:22:22;;;;;;;4.55;1.67;;;;;;;;;;5076191;28;20028;-69
2021/03/17 12:24:48;;;;;;;12.93;2.08;;;;;;;;;;5081264;28;20047;-69
2021/03/17 12:27:13;;;;;;;8.65;2.85;;;;;;;;;;5092748;28;20024;-69
2021/03/17 12:29:38;;;;;;;5.38;1.95;;;;;;;;;;5091931;28;20028;-69
2021/03/17 12:32:03;;;;;;;9.45;1.80;;;;;;;;;;5092835;28;20016;-69
2021/03/17 12:34:29;;;;;;;5.05;1.40;;;;;;;;;;5085767;28;20031;-68
2021/03/17 12:36:55;;;;;;;3.10;1.10;;;;;;;;;;5076218;28;20384;-68
2021/03/17 12:39:20;;;;;;;4.75;1.40;;;;;;;;;;5082826;28;20078;-68
2021/03/17 12:41:45;;;;;;;9.27;1.75;;;;;;;;;;5078477;28;20506;-68
2021/03/17 12:44:10;;;;;;;10.30;2.03;;;;;;;;;;5093301;28;20024;-68
2021/03/17 12:46:35;;;;;;;9.15;2.05;;;;;;;;;;5082420;28;20024;-68
2021/03/17 12:49:01;;;;;;;6.65;1.83;;;;;;;;;;5098918;28;20044;-68
2021/03/17 12:51:26;;;;;;;7.00;2.00;;;;;;;;;;5092869;28;20016;-68
2021/03/17 12:53:51;;;;;;;9.75;2.28;;;;;;;;;;5077056;28;20697;-68
2021/03/17 12:56:17;;;;;;;8.20;2.43;;;;;;;;;;5083882;28;20090;-69
2021/03/17 12:58:42;;;;;;;4.43;1.58;;;;;;;;;;5080430;28;20350;-69
2021/03/17 13:01:07;;;;;;;6.75;1.77;;;;;;;;;;5097547;28;20231;-69
2021/03/17 13:03:33;;;;;;;6.03;1.45;;;;;;;;;;5095599;28;20012;-69
2021/03/17 13:05:58;;;;;;;3.77;1.90;;;;;;;;;;5103896;28;20450;-68
2021/03/17 13:08:23;;;;;;;5.13;2.33;;;;;;;;;;5091581;28;20294;-68
2021/03/17 13:10:48;;;;;;;7.45;1.50;;;;;;;;;;5074504;28;20475;-68
2021/03/17 13:13:14;;;;;;;14.15;2.63;;;;;;;;;;5076180;28;20035;-68
2021/03/17 13:15:39;;;;;;;5.72;2.05;;;;;;;;;;5091030;28;20083;-68
2021/03/17 13:18:04;;;;;;;11.23;2.53;;;;;;;;;;5072261;28;20059;-68
2021/03/17 13:20:32;;;;;;;8.05;1.80;;;;;;;;;;5078440;28;20035;-68
2021/03/17 13:22:57;;;;;;;7.97;2.20;;;;;;;;;;5084972;28;20032;-68
2021/03/17 13:25:22;;;;;;;5.53;1.90;;;;;;;;;;5086886;28;20031;-68
2021/03/17 13:27:47;;;;;;;6.97;1.90;;;;;;;;;;5085897;28;20780;-68
2021/03/17 13:30:14;;;;;;;11.55;2.00;;;;;;;;;;5085675;28;20553;-68
2021/03/17 13:32:39;;;;;;;7.75;2.00;;;;;;;;;;5080491;28;20055;-69
2021/03/17 13:35:05;;;;;;;11.98;3.83;;;;;;;;;;5071264;28;20373;-69
2021/03/17 13:37:30;;;;;;;5.68;1.92;;;;;;;;;;5086837;28;20114;-69
2021/03/17 13:39:55;;;;;;;5.60;1.70;;;;;;;;;;5077116;28;20066;-69
2021/03/17 13:42:20;;;;;;;6.63;1.88;;;;;;;;;;5075962;28;20529;-68
2021/03/17 13:44:46;;;;;;;3.40;1.40;;;;;;;;;;5082663;28;20589;-68
2021/03/17 13:47:11;;;;;;;7.68;2.20;;;;;;;;;;5088994;28;20500;-68
2021/03/17 13:49:36;;;;;;;6.68;2.05;;;;;;;;;;5084090;28;20024;-68
2021/03/17 13:52:04;;;;;;;6.88;2.05;;;;;;;;;;5073198;28;20021;-68
2021/03/17 13:54:29;;;;;;;12.60;3.20;;;;;;;;;;5083034;28;20106;-68
2021/03/17 13:56:54;;;;;;;3.55;1.40;;;;;;;;;;5080615;28;20710;-68
2021/03/17 13:59:20;;;;;;;12.27;2.22;;;;;;;;;;5079498;28;20066;-68
2021/03/17 14:01:45;;;;;;;6.45;1.70;;;;;;;;;;5082507;28;20028;-68
2021/03/17 14:04:10;;;;;;;3.07;1.10;;;;;;;;;;5083916;28;20024;-68
2021/03/17 14:06:35;;;;;;;7.57;1.70;;;;;;;;;;5071723;28;20647;-68
2021/03/17 14:09:00;;;;;;;6.97;1.55;;;;;;;;;;5075548;28;20036;-68
2021/03/17 14:11:25;;;;;;;9.05;1.50;;;;;;;;;;5071636;28;20035;-69
2021/03/17 14:13:51;;;;;;;14.68;1.85;;;;;;;;;;5076032;28;20076;-68
2021/03/17 14:16:16;;;;;;;5.30;1.38;;;;;;;;;;5084991;28;20095;-68
2021/03/17 14:18:41;;;;;;;7.32;1.60;;;;;;;;;;5082930;28;20472;-68
2021/03/17 14:21:06;;;;;;;9.15;1.70;;;;;;;;;;5077340;28;20008;-68
2021/03/17 14:23:32;;;;;;;5.10;1.75;;;;;;;;;;5076001;28;20038;-68
2021/03/17 14:25:58;;;;;;;5.32;1.52;;;;;;;;;;5079818;28;20019;-68
2021/03/17 14:28:23;;;;;;;4.53;1.50;;;;;;;;;;5084773;28;20020;-68